Time;durP1;ratioP1;P1;durP2;ratioP2;P2;SDS_P1;SDS_P2;PMS_P1;PMS_P2;Temp;Humidity;BMP_temperature;BMP_pressure;BME280_temperature;BME280_humidity;BME280_pressure;Samples;Min_cycle;Max_cycle;Signal;HPM_P1;HPM_P2
2022/06/25 00:01:14;;;;;;;3.33;1.85;;;;;;;19.81;71.91;100834.66;5055456;27;96912;-35
2022/06/25 00:03:40;;;;;;;3.75;2.33;;;;;;;19.80;72.58;100825.53;5053324;27;100834;-35
2022/06/25 00:06:07;;;;;;;4.72;2.22;;;;;;;19.74;72.65;100828.91;5053154;27;101173;-34
2022/06/25 00:08:34;;;;;;;4.18;2.13;;;;;;;19.69;72.98;100820.25;5053609;27;96757;-34
2022/06/25 05:22:04;;;;;;;2.05;1.30;;;;;;;18.57;71.06;101051.53;5052961;27;97090;-33
2022/06/25 05:24:29;;;;;;;4.65;1.23;;;;;;;18.62;70.78;101045.63;5054937;27;107494;-34
2022/06/25 05:26:54;;;;;;;2.78;1.33;;;;;;;18.69;70.92;101063.25;5054221;27;96527;-34
2022/06/25 05:33:37;;;;;;;3.97;1.25;;;;;;;18.82;70.75;101069.34;5053096;27;96975;-34
2022/06/25 05:36:03;;;;;;;5.37;0.90;;;;;;;18.92;70.30;101068.50;5055209;27;99101;-34
2022/06/25 05:38:28;;;;;;;2.90;1.52;;;;;;;18.98;70.20;101055.06;5055079;27;96662;-34
2022/06/25 05:40:54;;;;;;;2.83;1.15;;;;;;;19.18;69.32;101066.06;5055520;27;96743;-34
2022/06/25 05:43:19;;;;;;;2.83;1.30;;;;;;;19.24;69.71;101074.59;5055106;27;97877;-34
2022/06/25 05:45:45;;;;;;;3.85;1.20;;;;;;;19.25;69.54;101064.47;5054908;27;97829;-34
2022/06/25 05:48:10;;;;;;;3.92;1.40;;;;;;;19.35;69.25;101067.19;5055589;27;96828;-34
2022/06/25 05:50:35;;;;;;;5.35;1.23;;;;;;;19.50;69.18;101080.34;5055514;27;96740;-34
2022/06/25 05:53:01;;;;;;;4.18;1.20;;;;;;;19.53;68.74;101065.44;5054343;27;111920;-34
2022/06/25 05:55:26;;;;;;;7.97;1.30;;;;;;;19.59;68.57;101075.81;5055598;27;97212;-34
2022/06/25 05:57:52;;;;;;;4.03;1.13;;;;;;;19.45;68.44;101074.44;5055046;27;96516;-34
2022/06/25 06:00:17;;;;;;;4.20;1.30;;;;;;;19.43;68.54;101072.84;5055046;27;96916;-34
2022/06/25 06:02:44;;;;;;;2.35;1.15;;;;;;;19.49;68.50;101088.72;5052954;27;100975;-34
2022/06/25 06:05:10;;;;;;;1.83;0.93;;;;;;;19.56;68.69;101092.63;5054604;27;99121;-34
2022/06/25 06:07:35;;;;;;;1.88;1.05;;;;;;;19.55;68.99;101079.91;5053492;27;96614;-34
2022/06/25 06:10:01;;;;;;;2.60;0.98;;;;;;;19.53;68.70;101081.94;5054908;27;96835;-34
2022/06/25 06:12:27;;;;;;;6.97;1.35;;;;;;;19.64;69.04;101086.38;5054750;27;97438;-35
2022/06/25 06:14:52;;;;;;;5.22;1.35;;;;;;;19.58;68.85;101092.47;5054598;27;99261;-35
2022/06/25 06:17:18;;;;;;;6.28;1.27;;;;;;;19.59;68.62;101089.56;5055118;27;96549;-35
2022/06/25 06:19:43;;;;;;;5.47;1.13;;;;;;;19.52;68.57;101100.31;5055738;27;96683;-34
2022/06/25 06:22:08;;;;;;;2.08;1.23;;;;;;;19.53;68.76;101102.03;5054269;27;97400;-35
2022/06/25 06:24:34;;;;;;;2.33;1.20;;;;;;;19.57;68.79;101110.84;5054571;27;99089;-34
2022/06/25 06:27:01;;;;;;;2.25;1.27;;;;;;;19.62;68.70;101114.03;5053014;27;96556;-34
2022/06/25 06:29:27;;;;;;;3.15;1.38;;;;;;;19.53;68.69;101114.91;5054721;27;96818;-34
2022/06/25 06:31:52;;;;;;;3.95;1.38;;;;;;;19.52;68.75;101111.31;5055476;27;99422;-34
2022/06/25 06:34:18;;;;;;;3.53;1.58;;;;;;;19.63;69.74;101129.50;5057793;27;99145;-34
2022/06/25 06:36:43;;;;;;;2.42;1.13;;;;;;;19.67;69.08;101124.59;5058460;27;96684;-35
2022/06/25 06:39:10;;;;;;;2.75;1.20;;;;;;;19.71;68.97;101137.03;5057882;27;100045;-34
2022/06/25 06:41:35;;;;;;;3.85;1.48;;;;;;;19.64;69.29;101130.34;5057767;27;99634;-34
2022/06/25 06:44:01;;;;;;;4.68;1.27;;;;;;;19.57;69.33;101130.09;5058348;27;96962;-34
2022/06/25 06:46:26;;;;;;;5.78;1.42;;;;;;;19.50;69.32;101123.44;5058066;27;96780;-34
2022/06/25 06:48:51;;;;;;;2.20;1.10;;;;;;;19.49;69.71;101132.69;5058141;27;96813;-34
2022/06/25 06:51:17;;;;;;;4.85;1.45;;;;;;;19.43;69.62;101131.41;5057208;27;100244;-34
2022/06/25 06:53:42;;;;;;;3.28;1.48;;;;;;;19.44;69.82;101127.63;5057643;27;97312;-34
2022/06/25 06:56:07;;;;;;;2.20;1.35;;;;;;;19.42;69.49;101132.41;5058032;27;96449;-34
2022/06/25 06:58:33;;;;;;;4.32;1.65;;;;;;;19.39;69.66;101142.81;5058384;27;96861;-34
2022/06/25 07:00:58;;;;;;;2.35;1.20;;;;;;;19.37;70.24;101150.34;5057719;27;97811;-34
2022/06/25 07:03:23;;;;;;;2.75;1.13;;;;;;;19.41;70.42;101149.91;5057734;27;97291;-34
2022/06/25 07:05:49;;;;;;;2.13;1.42;;;;;;;19.34;69.54;101146.00;5057704;27;96524;-35
2022/06/25 07:08:14;;;;;;;2.28;1.00;;;;;;;19.42;69.62;101150.78;5058324;27;96774;-34
2022/06/25 07:10:39;;;;;;;2.25;1.48;;;;;;;19.44;69.61;101157.00;5057670;27;97322;-34
2022/06/25 07:13:05;;;;;;;2.55;1.13;;;;;;;19.40;70.09;101153.69;5057565;27;96995;-34
2022/06/25 07:15:30;;;;;;;2.72;1.20;;;;;;;19.33;69.85;101155.28;5057469;27;96620;-34
2022/06/25 07:17:55;;;;;;;4.40;1.38;;;;;;;19.25;69.80;101149.59;5057417;27;96825;-34
2022/06/25 07:20:21;;;;;;;3.67;1.48;;;;;;;19.33;69.80;101152.53;5057146;27;99239;-35
2022/06/25 07:22:46;;;;;;;3.58;1.33;;;;;;;19.41;69.35;101154.53;5056869;27;97760;-34
2022/06/25 07:25:13;;;;;;;5.75;1.48;;;;;;;19.48;69.48;101161.19;5057416;27;96475;-34
2022/06/25 07:27:38;;;;;;;3.60;1.58;;;;;;;19.48;69.62;101148.31;5057793;27;96738;-34
2022/06/25 07:30:04;;;;;;;2.70;1.48;;;;;;;19.45;69.42;101153.22;5055854;27;99594;-34
2022/06/25 07:32:30;;;;;;;2.17;1.40;;;;;;;19.52;69.46;101157.13;5055681;27;101881;-34
2022/06/25 07:34:55;;;;;;;4.20;1.40;;;;;;;19.51;69.82;101150.75;5056865;27;104308;-34
2022/06/25 07:37:20;;;;;;;9.57;2.45;;;;;;;19.68;69.40;101173.94;5057513;27;96883;-34
2022/06/25 07:39:45;;;;;;;2.50;1.20;;;;;;;19.63;69.17;101172.59;5056684;27;97828;-34
2022/06/25 07:42:11;;;;;;;2.67;1.25;;;;;;;19.62;68.61;101169.00;5056896;27;99248;-34
2022/06/25 07:44:36;;;;;;;3.78;1.27;;;;;;;19.66;68.96;101172.31;5055142;27;96457;-34
2022/06/25 07:47:02;;;;;;;1.90;1.05;;;;;;;19.70;68.70;101171.03;5056967;27;96775;-34
2022/06/25 07:49:27;;;;;;;2.45;1.17;;;;;;;19.73;69.00;101170.75;5056748;27;99471;-34
2022/06/25 07:52:01;;;;;;;3.65;1.50;;;;;;;19.76;68.81;101156.72;5056505;27;99276;-34
2022/06/25 07:54:29;;;;;;;2.10;0.95;;;;;;;19.80;68.34;101177.38;5055986;27;96656;-34
2022/06/25 07:56:55;;;;;;;2.85;1.25;;;;;;;19.77;68.14;101166.69;5055990;27;96821;-34
2022/06/25 07:59:22;;;;;;;3.22;1.23;;;;;;;19.82;68.60;101166.25;5055324;27;101059;-34
2022/06/25 08:01:48;;;;;;;2.40;1.10;;;;;;;19.92;68.29;101175.34;5056609;27;99648;-34
2022/06/25 08:04:13;;;;;;;3.20;1.17;;;;;;;19.86;68.67;101171.31;5056646;27;96650;-34
2022/06/25 08:06:41;;;;;;;3.22;1.83;;;;;;;19.89;68.08;101167.41;5056519;27;96767;-34
2022/06/25 08:09:07;;;;;;;2.63;0.98;;;;;;;19.92;68.04;101167.97;5056353;27;99274;-34
2022/06/25 08:11:33;;;;;;;2.72;1.25;;;;;;;19.92;68.14;101180.84;5055004;27;100739;-33
2022/06/25 08:13:59;;;;;;;2.33;1.27;;;;;;;19.86;68.01;101173.22;5055340;27;96632;-34
2022/06/25 08:16:25;;;;;;;3.72;1.33;;;;;;;19.79;67.85;101186.66;5055306;27;96859;-34
2022/06/25 08:18:53;;;;;;;2.40;1.23;;;;;;;19.82;68.20;101185.50;5056322;27;98075;-34
2022/06/25 08:21:20;;;;;;;4.43;1.27;;;;;;;19.80;68.43;101174.63;5055407;27;101211;-34
2022/06/25 08:23:46;;;;;;;1.75;1.25;;;;;;;19.87;67.99;101184.03;5054621;27;96717;-34
2022/06/25 08:26:11;;;;;;;2.90;1.35;;;;;;;19.85;67.96;101185.19;5056377;27;96653;-34
2022/06/25 08:28:37;;;;;;;3.28;1.38;;;;;;;19.85;67.99;101176.94;5055989;27;98012;-34
2022/06/25 08:31:05;;;;;;;3.97;1.30;;;;;;;19.91;67.88;101190.13;5056358;27;97941;-34
2022/06/25 08:33:31;;;;;;;4.35;1.40;;;;;;;19.91;68.57;101180.00;5054800;27;96672;-34
2022/06/25 08:35:56;;;;;;;5.22;1.70;;;;;;;19.93;68.71;101191.72;5054973;27;96808;-34
2022/06/25 08:38:22;;;;;;;2.67;1.35;;;;;;;19.89;68.93;101190.25;5054695;27;100953;-34
2022/06/25 08:40:47;;;;;;;6.60;1.80;;;;;;;19.85;69.46;101209.94;5056337;27;97271;-34
2022/06/25 08:43:13;;;;;;;1.52;1.10;;;;;;;19.73;70.45;101207.38;5055919;27;96799;-34
2022/06/25 08:45:39;;;;;;;2.28;1.23;;;;;;;19.63;70.79;101209.19;5054605;27;96743;-35
2022/06/25 08:48:11;;;;;;;2.53;1.38;;;;;;;19.58;70.45;101216.16;5054254;27;97907;-35
2022/06/25 08:50:37;;;;;;;2.42;1.52;;;;;;;19.41;70.64;101218.59;5053360;27;101354;-35
2022/06/25 08:53:03;;;;;;;2.55;1.58;;;;;;;19.40;71.08;101218.72;5054302;27;96670;-34
2022/06/25 08:55:33;;;;;;;2.10;1.35;;;;;;;19.45;71.51;101230.16;5055922;27;96720;-34
2022/06/25 08:58:00;;;;;;;2.22;1.33;;;;;;;19.37;71.30;101228.13;5054384;27;101001;-34
2022/06/25 09:00:26;;;;;;;2.00;1.33;;;;;;;19.29;71.30;101219.75;5054107;27;101222;-35
2022/06/25 09:02:51;;;;;;;2.25;1.30;;;;;;;19.32;72.23;101230.44;5054555;27;96545;-34
2022/06/25 09:05:23;;;;;;;2.35;1.52;;;;;;;19.22;72.06;101229.56;5056104;27;96768;-34
2022/06/25 09:07:56;;;;;;;2.75;1.48;;;;;;;19.22;72.51;101235.03;5054294;27;100578;-34
2022/06/25 09:10:24;;;;;;;2.83;1.60;;;;;;;19.17;72.53;101229.97;5054667;27;100530;-34
2022/06/25 09:12:51;;;;;;;3.60;1.75;;;;;;;19.05;73.33;101226.47;5055649;27;96466;-34
2022/06/25 09:15:22;;;;;;;4.22;2.05;;;;;;;19.05;73.10;101229.22;5054417;27;96918;-34
2022/06/25 09:17:51;;;;;;;3.03;1.90;;;;;;;19.08;73.58;101226.19;5053705;27;101257;-34
2022/06/25 09:20:21;;;;;;;2.20;1.27;;;;;;;19.01;73.28;101236.00;5055319;27;97871;-34
2022/06/25 09:23:05;;;;;;;2.42;1.23;;;;;;;19.04;73.72;101243.97;5053796;27;96632;-34
2022/06/25 09:25:33;;;;;;;2.50;1.33;;;;;;;19.10;73.01;101242.53;5056016;27;96676;-34
2022/06/25 09:27:59;;;;;;;1.40;0.90;;;;;;;19.02;73.50;101240.50;5053989;27;101057;-34
2022/06/25 09:30:26;;;;;;;3.20;1.13;;;;;;;19.05;72.97;101233.84;5053807;27;101115;-34
2022/06/25 09:32:59;;;;;;;1.65;0.77;;;;;;;19.12;73.48;101242.41;5054078;27;96719;-34
2022/06/25 09:35:33;;;;;;;4.40;0.88;;;;;;;19.04;73.09;101232.09;5054569;27;96807;-34
2022/06/25 09:38:09;;;;;;;2.40;0.80;;;;;;;19.03;73.15;101250.47;5053551;27;101139;-35
2022/06/25 09:40:37;;;;;;;0.75;0.55;;;;;;;18.94;72.38;101259.53;5055449;27;97852;-34
2022/06/25 09:43:14;;;;;;;2.38;0.68;;;;;;;18.89;73.05;101262.69;5053639;27;96603;-34
2022/06/25 09:45:52;;;;;;;0.82;0.50;;;;;;;18.91;73.27;101262.56;5053764;27;96908;-35
2022/06/25 09:48:20;;;;;;;1.55;0.88;;;;;;;18.92;72.95;101277.16;5054742;27;98822;-34
2022/06/25 09:51:07;;;;;;;1.05;0.65;;;;;;;18.98;73.83;101266.47;5054857;27;97846;-34
2022/06/25 09:53:35;;;;;;;2.28;0.98;;;;;;;18.96;73.04;101260.25;5068436;27;96695;-34
2022/06/25 09:56:02;;;;;;;0.85;0.57;;;;;;;19.09;72.13;101255.41;5072345;27;96914;-34
2022/06/25 09:58:31;;;;;;;4.78;1.02;;;;;;;19.26;73.39;101261.22;5074008;27;101403;-33
2022/06/25 10:00:57;;;;;;;2.20;0.90;;;;;;;19.39;72.28;101256.31;5075399;27;97833;-35
2022/06/25 10:03:25;;;;;;;1.85;0.90;;;;;;;19.55;71.89;101265.91;5075802;27;96572;-34
2022/06/25 10:05:53;;;;;;;3.22;1.00;;;;;;;19.62;70.70;101264.31;5073601;27;96807;-34
2022/06/25 10:08:20;;;;;;;5.90;1.08;;;;;;;19.81;70.37;101263.50;5074460;27;97927;-34
2022/06/25 10:10:50;;;;;;;2.50;1.02;;;;;;;20.07;69.79;101264.66;5073684;27;100876;-33
2022/06/25 10:13:16;;;;;;;1.73;0.93;;;;;;;20.21;69.54;101255.06;5073172;27;96864;-35
2022/06/25 10:15:41;;;;;;;0.95;0.68;;;;;;;20.43;69.49;101247.50;5075094;27;97795;-33
2022/06/25 10:18:11;;;;;;;4.28;1.05;;;;;;;20.61;68.83;101245.72;5073652;27;101050;-34
2022/06/25 10:20:38;;;;;;;6.18;0.88;;;;;;;20.86;68.04;101259.84;5072955;27;98699;-34
2022/06/25 10:23:06;;;;;;;3.40;1.08;;;;;;;21.29;67.02;101250.91;5065636;27;96907;-33
2022/06/25 10:25:31;;;;;;;7.57;1.05;;;;;;;21.63;66.58;101248.38;5075737;27;96750;-34
2022/06/25 10:28:07;;;;;;;2.95;1.13;;;;;;;21.89;66.42;101258.63;5074929;27;97049;-35
2022/06/25 10:30:50;;;;;;;3.88;1.80;;;;;;;22.04;66.06;101256.16;5054566;27;99061;-34
2022/06/25 10:33:36;;;;;;;2.60;1.40;;;;;;;22.04;66.33;101256.16;5052633;27;96819;-34
2022/06/25 10:36:04;;;;;;;2.05;1.40;;;;;;;21.97;65.83;101244.03;5057512;27;96786;-34
2022/06/25 10:38:30;;;;;;;6.25;1.65;;;;;;;21.98;65.42;101245.78;5071278;27;100802;-34
2022/06/25 10:40:58;;;;;;;4.13;1.60;;;;;;;22.10;63.83;101247.25;5054886;27;101305;-34
2022/06/25 10:43:36;;;;;;;2.70;1.27;;;;;;;22.20;63.36;101252.69;5053363;27;96749;-34
2022/06/25 10:46:23;;;;;;;2.00;1.20;;;;;;;22.33;64.00;101266.09;5054667;27;96921;-35
2022/06/25 10:48:51;;;;;;;2.30;1.35;;;;;;;22.23;64.40;101261.53;5054181;27;97995;-35
2022/06/25 10:51:42;;;;;;;2.88;1.58;;;;;;;22.16;64.28;101257.63;5072726;27;99124;-34
2022/06/25 10:54:33;;;;;;;4.57;1.17;;;;;;;22.07;63.88;101255.84;5073639;27;96605;-34
2022/06/25 10:57:00;;;;;;;4.20;1.73;;;;;;;22.30;64.21;101260.91;5070573;27;97006;-34
2022/06/25 10:59:31;;;;;;;4.47;1.35;;;;;;;22.35;63.64;101267.66;5072593;27;101084;-34
2022/06/25 11:01:59;;;;;;;1.98;1.38;;;;;;;22.24;64.72;101270.69;5074811;27;97894;-34
2022/06/25 11:04:28;;;;;;;2.60;1.35;;;;;;;22.01;63.15;101267.53;5073408;27;96510;-34
2022/06/25 11:07:06;;;;;;;4.75;1.80;;;;;;;21.67;64.30;101259.13;5073102;27;96971;-34
2022/06/25 11:09:32;;;;;;;2.65;1.45;;;;;;;21.71;64.47;101269.66;5074728;27;97348;-34
2022/06/25 11:11:58;;;;;;;1.95;1.23;;;;;;;21.58;64.20;101263.66;5071745;27;98109;-34
2022/06/25 11:14:24;;;;;;;1.92;1.25;;;;;;;21.55;64.97;101262.09;5073373;27;96563;-34
2022/06/25 11:16:51;;;;;;;1.67;1.10;;;;;;;21.66;65.18;101257.38;5075226;27;96727;-34
2022/06/25 11:19:17;;;;;;;1.40;1.00;;;;;;;21.95;63.43;101263.53;5074186;27;101313;-34
2022/06/25 11:21:45;;;;;;;2.38;1.13;;;;;;;22.20;61.93;101258.19;5076431;27;101067;-34
2022/06/25 11:24:18;;;;;;;2.60;1.15;;;;;;;22.54;62.59;101255.53;5075905;27;97337;-35
2022/06/25 11:29:48;;;;;;;1.58;0.90;;;;;;;22.76;61.66;101254.09;5078280;27;97018;-34
2022/06/25 11:32:15;;;;;;;1.58;0.77;;;;;;;22.79;62.38;101261.22;5075941;27;100941;-34
2022/06/25 11:34:41;;;;;;;1.55;1.08;;;;;;;22.62;59.84;101249.19;5076212;27;96673;-35
2022/06/25 11:37:09;;;;;;;3.40;1.05;;;;;;;22.43;62.15;101256.69;5074113;27;97048;-35
2022/06/25 11:39:35;;;;;;;2.38;1.00;;;;;;;22.45;61.91;101273.97;5077466;27;97903;-34
2022/06/25 11:42:02;;;;;;;1.27;0.80;;;;;;;22.55;61.92;101262.81;5076447;27;101504;-34
2022/06/25 11:44:28;;;;;;;2.13;1.00;;;;;;;22.78;61.54;101271.38;5077600;27;96620;-34
2022/06/25 11:46:53;;;;;;;3.10;0.95;;;;;;;23.14;61.00;101259.31;5076087;27;97862;-34
2022/06/25 11:49:22;;;;;;;6.22;0.85;;;;;;;23.45;58.19;101270.66;5075994;27;97847;-35
2022/06/25 11:51:52;;;;;;;1.08;0.93;;;;;;;23.67;59.96;101270.03;5075853;27;100926;-34
2022/06/25 11:54:23;;;;;;;0.93;0.82;;;;;;;23.90;55.47;101275.78;5077518;27;96547;-34
2022/06/25 11:56:51;;;;;;;1.40;0.70;;;;;;;23.87;57.48;101272.53;5075040;27;97287;-35
2022/06/25 11:59:43;;;;;;;3.80;1.10;;;;;;;23.63;57.44;101276.94;5075432;27;101329;-35
2022/06/25 12:02:08;;;;;;;;;;;;;;;23.61;59.08;101273.47;5076341;27;98104;-34
2022/06/25 12:04:47;;;;;;;1.35;0.80;;;;;;;23.26;58.37;101280.09;5077423;27;96602;-34
2022/06/25 12:07:20;;;;;;;3.45;1.20;;;;;;;23.02;59.16;101278.97;5077813;27;96746;-34
2022/06/25 12:09:46;;;;;;;3.15;0.77;;;;;;;23.03;59.43;101279.84;5075719;27;101419;-35
2022/06/25 12:12:12;;;;;;;2.70;1.00;;;;;;;22.94;59.87;101276.13;5076571;27;99345;-35
2022/06/25 12:14:38;;;;;;;3.97;1.10;;;;;;;22.92;60.24;101271.81;5076648;27;96509;-35
2022/06/25 12:17:05;;;;;;;1.45;0.90;;;;;;;23.17;60.11;101273.69;5076267;27;96789;-34
2022/06/25 12:19:48;;;;;;;3.40;1.02;;;;;;;23.51;59.37;101276.41;5077003;27;97366;-34
2022/06/25 12:22:28;;;;;;;1.25;0.70;;;;;;;23.56;57.50;101256.53;5074752;27;101179;-34
2022/06/25 12:24:56;;;;;;;1.27;0.73;;;;;;;23.77;54.99;101249.69;5075677;27;96647;-34
2022/06/25 12:27:22;;;;;;;3.25;0.88;;;;;;;23.71;56.97;101248.44;5075713;27;96815;-35
2022/06/25 12:29:49;;;;;;;1.55;0.70;;;;;;;23.81;56.06;101243.66;5076136;27;97905;-35
2022/06/25 12:32:14;;;;;;;1.95;0.95;;;;;;;23.88;55.10;101238.28;5075368;27;101008;-34
2022/06/25 12:34:55;;;;;;;1.40;0.60;;;;;;;23.82;53.28;101242.59;5077054;27;96473;-34
2022/06/25 12:37:28;;;;;;;1.27;0.70;;;;;;;23.66;54.93;101239.78;5076491;27;97023;-34
2022/06/25 12:39:57;;;;;;;2.25;0.82;;;;;;;23.79;55.27;101231.88;5074762;27;100772;-35
2022/06/25 12:42:23;;;;;;;2.17;0.70;;;;;;;23.78;55.26;101232.03;5076575;27;96942;-34
2022/06/25 12:44:50;;;;;;;0.98;0.80;;;;;;;23.87;55.31;101218.03;5076648;27;96497;-35
2022/06/25 12:47:17;;;;;;;4.72;0.80;;;;;;;24.22;55.76;101226.13;5076382;27;96798;-34
2022/06/25 12:49:49;;;;;;;6.65;0.95;;;;;;;24.36;54.91;101218.00;5074509;27;101491;-35
2022/06/25 12:52:19;;;;;;;0.68;0.50;;;;;;;24.17;53.98;101223.94;5074846;27;100852;-34
2022/06/25 12:54:50;;;;;;;1.85;0.88;;;;;;;24.06;54.84;101243.66;5076424;27;96585;-35
2022/06/25 12:57:30;;;;;;;3.00;0.90;;;;;;;24.10;55.56;101232.06;5075540;27;96752;-35
2022/06/25 12:59:56;;;;;;;0.82;0.60;;;;;;;23.94;53.86;101238.44;5076383;27;98291;-35
2022/06/25 13:02:22;;;;;;;0.85;0.57;;;;;;;23.96;55.39;101232.75;5074573;27;101195;-35
2022/06/25 13:04:49;;;;;;;1.67;0.60;;;;;;;23.88;54.73;101236.38;5074672;27;96680;-35
2022/06/25 13:07:15;;;;;;;2.00;0.90;;;;;;;23.85;55.49;101249.69;5074753;27;96821;-35
2022/06/25 13:09:41;;;;;;;2.00;0.70;;;;;;;23.88;54.85;101249.34;5074240;27;99381;-35
2022/06/25 13:12:08;;;;;;;1.55;0.50;;;;;;;23.60;55.03;101244.09;5073474;27;101182;-34
2022/06/25 13:14:34;;;;;;;3.58;0.73;;;;;;;23.34;56.03;101240.59;5074886;27;96481;-35
2022/06/25 13:16:59;;;;;;;3.83;0.80;;;;;;;23.14;56.14;101246.38;5076491;27;96891;-35
2022/06/25 13:19:25;;;;;;;3.47;0.65;;;;;;;23.08;56.33;101228.56;5075210;27;99929;-35
2022/06/25 13:21:51;;;;;;;2.58;0.73;;;;;;;23.25;55.72;101234.16;5074330;27;99917;-35
2022/06/25 13:24:17;;;;;;;0.65;0.55;;;;;;;23.36;55.47;101236.63;5075995;27;96808;-35
2022/06/25 13:26:42;;;;;;;2.55;0.85;;;;;;;23.37;55.51;101221.75;5076481;27;96843;-35
2022/06/25 13:29:08;;;;;;;0.82;0.60;;;;;;;23.63;56.53;101227.16;5075254;27;99614;-35
2022/06/25 13:31:34;;;;;;;2.00;0.77;;;;;;;23.85;54.87;101222.03;5074015;27;101016;-35
2022/06/25 13:33:59;;;;;;;2.00;0.70;;;;;;;24.14;55.20;101236.19;5074322;27;96951;-35
2022/06/25 13:36:25;;;;;;;0.73;0.55;;;;;;;24.13;54.64;101223.41;5074063;27;96910;-36
2022/06/25 13:38:50;;;;;;;1.02;0.70;;;;;;;24.02;54.43;101229.28;5074439;27;99501;-35
2022/06/25 13:41:16;;;;;;;2.35;0.80;;;;;;;23.91;55.31;101226.88;5073674;27;97842;-35
2022/06/25 13:43:41;;;;;;;1.30;0.85;;;;;;;23.74;53.59;101218.56;5073308;27;96682;-35
2022/06/25 13:46:07;;;;;;;2.25;0.90;;;;;;;23.63;55.85;101215.22;5075614;27;96996;-35
2022/06/25 13:48:32;;;;;;;2.22;0.70;;;;;;;23.66;55.68;101225.94;5074875;27;98937;-35
2022/06/25 13:50:58;;;;;;;1.42;0.75;;;;;;;23.61;55.09;101226.47;5075536;27;97748;-35
2022/06/25 13:53:23;;;;;;;0.90;0.55;;;;;;;23.60;55.44;101224.75;5075045;27;96628;-35
2022/06/25 13:55:50;;;;;;;1.10;0.70;;;;;;;23.69;55.45;101222.81;5075584;27;96835;-35
2022/06/25 13:58:16;;;;;;;0.60;0.60;;;;;;;23.72;54.31;101219.75;5075314;27;98885;-35
2022/06/25 14:00:43;;;;;;;2.45;1.05;;;;;;;23.86;55.62;101226.50;5073800;27;98012;-35
2022/06/25 14:03:10;;;;;;;1.25;0.70;;;;;;;23.62;54.99;101228.22;5074180;27;96557;-35
2022/06/25 14:05:36;;;;;;;1.45;0.90;;;;;;;23.71;55.12;101218.00;5075640;27;96795;-35
2022/06/25 14:08:01;;;;;;;2.53;1.05;;;;;;;23.65;55.44;101211.25;5075067;27;99418;-35
2022/06/25 14:10:26;;;;;;;1.60;0.77;;;;;;;23.69;55.79;101214.53;5075791;27;97938;-35
2022/06/25 14:12:52;;;;;;;2.85;1.08;;;;;;;23.66;56.01;101212.13;5075609;27;96549;-35
2022/06/25 14:15:17;;;;;;;1.95;1.30;;;;;;;23.66;55.27;101229.56;5075547;27;96757;-35
2022/06/25 14:17:42;;;;;;;1.30;0.80;;;;;;;23.60;56.07;101227.50;5074881;27;104090;-35
2022/06/25 14:20:09;;;;;;;1.63;1.00;;;;;;;23.39;56.63;101218.81;5075147;27;97848;-35
2022/06/25 14:22:34;;;;;;;1.70;1.10;;;;;;;23.29;55.86;101224.50;5073585;27;96871;-35
2022/06/25 14:27:43;;;;;;;1.15;1.05;;;;;;;23.10;56.93;101223.75;5075099;27;97095;-35
2022/06/25 14:30:09;;;;;;;2.75;0.98;;;;;;;23.04;57.62;101227.16;5074905;27;104216;-35
2022/06/25 14:32:34;;;;;;;3.35;0.90;;;;;;;22.94;57.42;101231.94;5075079;27;96699;-35
2022/06/25 14:35:00;;;;;;;2.08;0.85;;;;;;;22.83;57.69;101235.84;5075758;27;96699;-35
2022/06/25 14:42:53;;;;;;;1.48;0.98;;;;;;;22.51;57.95;101235.69;5074898;27;96693;-35
2022/06/25 14:45:18;;;;;;;4.20;1.30;;;;;;;22.39;58.56;101237.84;5075094;27;96917;-35
2022/06/25 14:47:47;;;;;;;1.90;1.10;;;;;;;22.30;58.52;101227.78;5074589;27;97930;-35
2022/06/25 14:50:12;;;;;;;2.33;1.20;;;;;;;22.30;58.93;101228.63;5074814;27;97962;-35
2022/06/25 14:52:38;;;;;;;1.83;0.82;;;;;;;22.24;59.74;101240.34;5075928;27;96502;-35
2022/06/25 14:55:04;;;;;;;1.63;0.95;;;;;;;22.12;60.62;101228.66;5078430;27;96820;-35
2022/06/25 14:57:29;;;;;;;3.17;1.35;;;;;;;22.05;60.59;101236.69;5076807;27;101050;-35
2022/06/25 14:59:55;;;;;;;4.63;1.55;;;;;;;21.98;60.95;101234.75;5078709;27;97322;-35
2022/06/25 15:02:20;;;;;;;3.20;1.40;;;;;;;21.93;61.28;101232.47;5078651;27;96651;-35
2022/06/25 15:04:45;;;;;;;2.92;1.40;;;;;;;21.80;61.40;101220.97;5078607;27;96856;-35
2022/06/25 15:07:11;;;;;;;3.05;1.50;;;;;;;21.79;62.01;101230.28;5077650;27;97394;-35
2022/06/25 15:09:36;;;;;;;1.85;1.27;;;;;;;21.67;61.50;101218.63;5078286;27;97797;-35
2022/06/25 15:12:02;;;;;;;1.52;1.02;;;;;;;21.63;61.26;101222.69;5078376;27;96533;-35
2022/06/25 15:14:27;;;;;;;1.77;1.08;;;;;;;21.53;61.40;101219.16;5078099;27;96788;-35
2022/06/25 15:16:53;;;;;;;3.20;0.90;;;;;;;21.44;60.86;101220.97;5077712;27;99567;-35
2022/06/25 15:19:18;;;;;;;0.98;0.75;;;;;;;21.35;61.70;101219.97;5078095;27;97830;-35
2022/06/25 15:21:43;;;;;;;1.75;0.80;;;;;;;21.32;61.88;101224.94;5077972;27;96612;-35
2022/06/25 15:24:30;;;;;;;1.05;0.77;;;;;;;21.37;61.99;101225.34;5078387;27;96762;-35
2022/06/25 15:26:56;;;;;;;1.23;0.70;;;;;;;21.29;62.79;101219.75;5077703;27;99397;-35
2022/06/25 15:29:21;;;;;;;0.65;0.60;;;;;;;21.23;62.51;101217.59;5077973;27;97222;-35
2022/06/25 15:31:47;;;;;;;1.48;0.80;;;;;;;21.14;62.79;101224.88;5077591;27;96530;-35
2022/06/25 15:34:12;;;;;;;1.85;0.95;;;;;;;21.16;63.10;101233.88;5077649;27;96783;-35
2022/06/25 15:36:38;;;;;;;3.30;0.98;;;;;;;21.08;63.31;101242.91;5077713;27;101825;-35
2022/06/25 15:39:04;;;;;;;2.88;0.88;;;;;;;21.04;64.11;101244.22;5077575;27;97621;-35
2022/06/25 15:41:29;;;;;;;1.10;0.63;;;;;;;20.99;63.95;101246.56;5076615;27;96477;-35
2022/06/25 15:43:55;;;;;;;1.90;0.90;;;;;;;20.94;63.89;101246.19;5077646;27;96812;-35
2022/06/25 15:46:29;;;;;;;0.85;0.82;;;;;;;20.88;65.15;101250.41;5077376;27;97859;-35
2022/06/25 15:48:54;;;;;;;2.67;1.00;;;;;;;20.83;64.21;101243.59;5076230;27;100907;-35
2022/06/25 15:51:20;;;;;;;2.53;0.77;;;;;;;20.78;65.49;101241.31;5077633;27;97137;-35
2022/06/25 15:53:45;;;;;;;1.63;0.80;;;;;;;20.69;65.56;101231.19;5077723;27;96962;-35
2022/06/25 15:56:11;;;;;;;2.42;0.98;;;;;;;20.64;66.44;101228.03;5076944;27;97702;-35
2022/06/25 16:01:20;;;;;;;2.30;0.90;;;;;;;20.49;67.00;101222.97;5077591;27;97059;-35
2022/06/25 16:03:45;;;;;;;1.73;1.10;;;;;;;20.44;66.47;101224.47;5076975;27;96956;-35
2022/06/25 16:06:11;;;;;;;2.78;1.35;;;;;;;20.31;67.35;101228.41;5076905;27;97943;-35
2022/06/25 16:08:36;;;;;;;4.13;1.20;;;;;;;20.27;67.59;101223.34;5075561;27;101376;-35
2022/06/25 16:11:30;;;;;;;3.15;1.13;;;;;;;20.32;67.98;101235.63;5077202;27;96549;-35
2022/06/25 16:13:47;;;;;;;1.88;1.08;;;;;;;20.24;67.96;101226.41;5077139;27;96741;-35
2022/06/25 16:16:12;;;;;;;1.33;0.98;;;;;;;20.26;67.82;101222.50;5076840;27;99437;-35
2022/06/25 16:18:38;;;;;;;1.60;1.08;;;;;;;20.27;68.24;101207.72;5077044;27;98046;-35
2022/06/25 16:21:05;;;;;;;1.75;1.13;;;;;;;20.32;68.23;101215.50;5076778;27;96655;-35
2022/06/25 16:23:30;;;;;;;2.65;1.30;;;;;;;20.28;68.10;101206.69;5075423;27;96856;-35
2022/06/25 16:25:55;;;;;;;3.08;1.30;;;;;;;20.26;68.59;101205.97;5077028;27;97988;-34
2022/06/25 16:28:21;;;;;;;4.25;1.67;;;;;;;20.30;68.32;101214.78;5077000;27;97884;-35
2022/06/25 16:30:46;;;;;;;1.38;1.00;;;;;;;20.35;68.23;101223.47;5077130;27;96506;-35
2022/06/25 16:33:12;;;;;;;1.50;1.08;;;;;;;20.30;68.40;101223.03;5076831;27;96479;-35
2022/06/25 16:35:37;;;;;;;2.42;1.33;;;;;;;20.32;69.06;101219.13;5076823;27;97576;-35
2022/06/25 16:38:02;;;;;;;1.65;0.95;;;;;;;20.31;68.06;101222.91;5077193;27;99548;-35
2022/06/25 16:40:28;;;;;;;2.65;1.08;;;;;;;20.29;68.38;101218.56;5076988;27;96551;-35
2022/06/25 16:42:53;;;;;;;1.08;0.85;;;;;;;20.27;67.94;101226.09;5076684;27;96845;-35
2022/06/25 16:45:18;;;;;;;1.75;0.75;;;;;;;20.22;68.30;101226.53;5076049;27;97867;-34
2022/06/25 16:47:44;;;;;;;1.50;1.00;;;;;;;20.13;68.39;101238.44;5076308;27;97783;-35
2022/06/25 16:50:11;;;;;;;0.95;0.80;;;;;;;20.15;68.13;101236.41;5076611;27;96441;-35
2022/06/25 16:52:37;;;;;;;1.35;0.90;;;;;;;20.05;69.09;101222.66;5075232;27;96901;-35
2022/06/25 16:55:02;;;;;;;2.35;1.17;;;;;;;20.12;68.34;101233.97;5076542;27;97487;-35